Time;durP1;ratioP1;P1;durP2;ratioP2;P2;SDS_P1;SDS_P2;PMS_P1;PMS_P2;Temp;Humidity;BMP_temperature;BMP_pressure;BME280_temperature;BME280_humidity;BME280_pressure;Samples;Min_cycle;Max_cycle;Signal;HPM_P1;HPM_P2
2022/03/25 00:02:48;;;;;;;50.78;20.70;;;;;;;;;;6280337;22;20024;-89
2022/03/25 00:09:17;;;;;;;43.17;21.00;;;;;;;;;;6190870;23;20029;-94
2022/03/25 00:11:48;;;;;;;48.05;21.33;;;;;;;;;;6163764;23;20444;-93
2022/03/25 00:14:16;;;;;;;48.22;20.00;;;;;;;;;;6114927;23;20029;-93
2022/03/25 00:16:47;;;;;;;50.13;19.52;;;;;;;;;;6117612;23;20033;-93
2022/03/25 00:19:14;;;;;;;50.28;21.90;;;;;;;;;;6177598;23;20477;-93
2022/03/25 00:21:43;;;;;;;49.03;23.25;;;;;;;;;;6149741;23;20021;-93
2022/03/25 00:24:10;;;;;;;51.03;21.48;;;;;;;;;;6167299;23;20630;-93
2022/03/25 00:26:38;;;;;;;47.22;20.52;;;;;;;;;;6139446;23;20104;-93
2022/03/25 00:29:06;;;;;;;47.17;20.90;;;;;;;;;;6136769;23;20104;-93
2022/03/25 00:31:36;;;;;;;44.67;20.05;;;;;;;;;;6163165;23;20025;-93
2022/03/25 00:34:09;;;;;;;49.25;22.20;;;;;;;;;;6136678;23;20393;-92
2022/03/25 00:36:38;;;;;;;47.35;23.00;;;;;;;;;;6162231;23;20112;-92
2022/03/25 00:39:08;;;;;;;53.15;22.63;;;;;;;;;;6114383;23;20036;-93
2022/03/25 00:41:44;;;;;;;47.30;22.05;;;;;;;;;;6164887;23;20089;-92
2022/03/25 00:44:13;;;;;;;49.60;20.42;;;;;;;;;;6139821;23;20013;-93
2022/03/25 00:46:51;;;;;;;50.40;20.65;;;;;;;;;;6162811;23;20025;-93
2022/03/25 00:49:20;;;;;;;46.47;21.20;;;;;;;;;;6138633;23;20052;-93
2022/03/25 00:51:48;;;;;;;46.97;20.38;;;;;;;;;;6137383;23;20043;-92
2022/03/25 00:54:16;;;;;;;52.30;23.75;;;;;;;;;;6137680;23;20157;-93
2022/03/25 00:56:48;;;;;;;48.42;20.17;;;;;;;;;;6164115;23;20655;-93
2022/03/25 00:59:16;;;;;;;45.70;21.75;;;;;;;;;;6113771;23;20116;-93
2022/03/25 01:01:44;;;;;;;45.38;20.58;;;;;;;;;;6143340;23;20041;-93
2022/03/25 01:04:13;;;;;;;47.10;20.70;;;;;;;;;;6153996;23;20535;-93
2022/03/25 01:06:43;;;;;;;43.95;21.35;;;;;;;;;;6143000;23;20025;-92
2022/03/25 01:09:14;;;;;;;46.45;20.40;;;;;;;;;;6145706;23;20184;-93
2022/03/25 01:11:44;;;;;;;48.10;19.90;;;;;;;;;;6166880;23;20088;-93
2022/03/25 01:14:13;;;;;;;44.72;20.83;;;;;;;;;;6143800;23;20035;-92
2022/03/25 01:16:40;;;;;;;43.85;20.75;;;;;;;;;;6174766;23;20025;-93
2022/03/25 01:19:12;;;;;;;43.63;21.38;;;;;;;;;;6149733;23;20032;-93
2022/03/25 01:21:48;;;;;;;47.83;21.63;;;;;;;;;;6148215;23;20052;-92
2022/03/25 01:24:19;;;;;;;49.10;19.33;;;;;;;;;;6173072;23;20039;-92
2022/03/25 01:26:46;;;;;;;45.05;19.55;;;;;;;;;;6150040;23;20040;-93
2022/03/25 01:29:17;;;;;;;51.42;19.80;;;;;;;;;;6137048;23;20068;-92
2022/03/25 01:31:45;;;;;;;50.83;18.95;;;;;;;;;;6150532;23;20040;-92
2022/03/25 01:34:15;;;;;;;51.60;20.75;;;;;;;;;;6172874;23;20028;-93
2022/03/25 01:36:46;;;;;;;48.47;20.10;;;;;;;;;;6137716;23;20048;-93
2022/03/25 01:39:18;;;;;;;48.35;21.92;;;;;;;;;;6136697;23;20112;-91
2022/03/25 01:41:49;;;;;;;43.08;21.38;;;;;;;;;;6144815;23;20021;-92
2022/03/25 01:44:26;;;;;;;42.20;20.33;;;;;;;;;;6197818;23;20031;-93
2022/03/25 01:46:59;;;;;;;45.63;19.92;;;;;;;;;;6108539;23;20025;-93
2022/03/25 01:49:27;;;;;;;49.08;20.13;;;;;;;;;;6132334;23;20073;-92
2022/03/25 01:52:02;;;;;;;48.92;20.50;;;;;;;;;;6117350;23;20028;-91
2022/03/25 01:54:37;;;;;;;43.95;20.52;;;;;;;;;;6130243;23;20033;-93
2022/03/25 01:57:09;;;;;;;51.00;19.92;;;;;;;;;;6131722;23;20036;-92
2022/03/25 01:59:36;;;;;;;43.28;19.95;;;;;;;;;;6132159;23;20029;-93
2022/03/25 02:02:06;;;;;;;42.58;19.90;;;;;;;;;;6169306;23;20021;-93
2022/03/25 02:04:35;;;;;;;45.70;19.58;;;;;;;;;;6133472;23;20064;-93
2022/03/25 02:07:10;;;;;;;47.53;21.20;;;;;;;;;;6083956;23;20601;-93
2022/03/25 02:09:38;;;;;;;45.90;19.58;;;;;;;;;;6108679;23;20477;-92
2022/03/25 02:12:12;;;;;;;39.55;19.75;;;;;;;;;;6131436;23;20033;-93
2022/03/25 02:14:42;;;;;;;40.92;19.52;;;;;;;;;;6108951;23;20026;-92
2022/03/25 02:17:12;;;;;;;44.72;19.05;;;;;;;;;;6142749;23;20041;-93
2022/03/25 02:19:41;;;;;;;43.70;18.92;;;;;;;;;;6107672;23;20157;-93
2022/03/25 02:22:26;;;;;;;;;;;;;;;;;;;;;
2022/03/25 02:25:01;;;;;;;43.67;18.65;;;;;;;;;;6158049;23;20037;-93
2022/03/25 02:27:32;;;;;;;42.20;17.98;;;;;;;;;;6085439;23;20647;-94
2022/03/25 02:30:07;;;;;;;39.97;18.55;;;;;;;;;;6085538;23;20071;-93
2022/03/25 02:32:36;;;;;;;39.35;19.08;;;;;;;;;;6084128;23;20021;-93
2022/03/25 02:35:05;;;;;;;43.15;19.38;;;;;;;;;;6167247;23;20025;-93
2022/03/25 02:37:38;;;;;;;41.58;19.17;;;;;;;;;;6108233;23;20057;-93
2022/03/25 02:40:09;;;;;;;43.70;18.92;;;;;;;;;;6156383;23;20074;-93
2022/03/25 02:42:36;;;;;;;40.10;17.67;;;;;;;;;;6107383;23;20052;-93
2022/03/25 02:45:08;;;;;;;36.80;17.90;;;;;;;;;;6085340;23;20136;-92
2022/03/25 02:47:39;;;;;;;39.33;17.88;;;;;;;;;;6142742;23;20104;-93
2022/03/25 02:50:12;;;;;;;38.20;16.85;;;;;;;;;;6117584;23;20038;-93
2022/03/25 02:52:41;;;;;;;41.35;17.45;;;;;;;;;;6142361;23;20134;-93
2022/03/25 02:55:13;;;;;;;33.47;16.08;;;;;;;;;;6142186;23;20023;-92
2022/03/25 02:57:40;;;;;;;40.95;15.93;;;;;;;;;;6108281;23;20033;-93
2022/03/25 03:00:09;;;;;;;38.28;16.33;;;;;;;;;;6131436;23;20204;-92
2022/03/25 03:02:37;;;;;;;39.88;17.35;;;;;;;;;;6142819;23;20037;-94
2022/03/25 03:05:07;;;;;;;42.53;16.88;;;;;;;;;;6133306;23;20028;-93
2022/03/25 03:07:35;;;;;;;40.10;16.90;;;;;;;;;;6107373;23;20038;-93
2022/03/25 03:10:04;;;;;;;37.33;16.48;;;;;;;;;;6139903;23;20018;-92
2022/03/25 03:12:35;;;;;;;33.17;15.98;;;;;;;;;;6166700;23;20018;-92
2022/03/25 03:15:06;;;;;;;36.97;15.88;;;;;;;;;;6166615;23;20025;-92
2022/03/25 03:17:39;;;;;;;39.15;16.95;;;;;;;;;;6142535;23;20017;-92
2022/03/25 03:20:07;;;;;;;41.08;16.33;;;;;;;;;;6109383;23;20017;-91
2022/03/25 03:22:34;;;;;;;38.55;16.63;;;;;;;;;;6107445;23;20799;-93
2022/03/25 03:25:03;;;;;;;39.40;17.55;;;;;;;;;;6131994;23;20116;-93
2022/03/25 03:27:31;;;;;;;42.42;16.95;;;;;;;;;;6142668;23;20032;-93
2022/03/25 03:29:58;;;;;;;37.78;16.63;;;;;;;;;;6132648;23;20330;-93
2022/03/25 03:32:27;;;;;;;41.97;16.77;;;;;;;;;;6142469;23;20040;-93
2022/03/25 03:34:58;;;;;;;36.30;17.02;;;;;;;;;;6085569;23;20025;-93
2022/03/25 03:37:26;;;;;;;46.08;18.60;;;;;;;;;;6108843;23;20033;-93
2022/03/25 03:39:54;;;;;;;41.00;18.38;;;;;;;;;;6107531;23;20322;-91
2022/03/25 03:42:22;;;;;;;36.92;17.48;;;;;;;;;;6109685;23;20045;-93
2022/03/25 03:44:51;;;;;;;39.78;16.85;;;;;;;;;;6108446;23;20108;-93
2022/03/25 03:47:19;;;;;;;39.60;17.70;;;;;;;;;;6133383;23;20457;-93
2022/03/25 03:49:53;;;;;;;35.78;15.43;;;;;;;;;;6109393;23;20025;-92
2022/03/25 03:52:23;;;;;;;38.72;17.10;;;;;;;;;;6109208;23;20035;-92
2022/03/25 03:55:45;;;;;;;41.20;16.50;;;;;;;;;;6132859;23;20029;-92
2022/03/25 03:58:14;;;;;;;38.72;15.52;;;;;;;;;;6086652;23;20037;-93
2022/03/25 04:00:42;;;;;;;36.42;16.02;;;;;;;;;;6111388;23;20030;-93
2022/03/25 04:03:12;;;;;;;38.10;16.60;;;;;;;;;;6137346;23;20009;-93
2022/03/25 04:05:44;;;;;;;37.15;16.40;;;;;;;;;;6136237;23;20025;-93
2022/03/25 04:08:12;;;;;;;39.60;17.40;;;;;;;;;;6090555;23;20125;-94
2022/03/25 04:10:40;;;;;;;40.95;16.38;;;;;;;;;;6132485;23;20039;-93
2022/03/25 04:13:08;;;;;;;37.15;16.10;;;;;;;;;;6110124;23;20040;-92
2022/03/25 04:15:36;;;;;;;37.40;16.15;;;;;;;;;;6132826;23;20109;-93
2022/03/25 04:18:31;;;;;;;41.63;15.95;;;;;;;;;;6108402;23;20029;-93
2022/03/25 04:20:58;;;;;;;41.35;16.75;;;;;;;;;;6106085;23;20478;-93
2022/03/25 04:23:26;;;;;;;39.55;16.85;;;;;;;;;;6108743;23;20040;-93
2022/03/25 04:25:57;;;;;;;40.65;17.00;;;;;;;;;;6110150;23;20037;-93
2022/03/25 04:28:29;;;;;;;40.38;17.63;;;;;;;;;;6110166;23;20065;-92
2022/03/25 04:30:56;;;;;;;38.42;16.98;;;;;;;;;;6108545;23;20025;-93
2022/03/25 04:33:26;;;;;;;37.95;16.27;;;;;;;;;;6144352;23;20051;-93
2022/03/25 04:35:54;;;;;;;40.10;16.08;;;;;;;;;;6143899;23;20085;-92
2022/03/25 04:38:22;;;;;;;33.80;16.60;;;;;;;;;;6160010;23;20424;-92
2022/03/25 04:40:50;;;;;;;37.60;17.02;;;;;;;;;;6147040;23;20065;-92
2022/03/25 04:43:18;;;;;;;40.63;16.02;;;;;;;;;;6112835;23;20032;-92
2022/03/25 04:45:46;;;;;;;39.90;16.95;;;;;;;;;;6091162;23;20057;-91
2022/03/25 04:48:16;;;;;;;32.65;15.38;;;;;;;;;;6121859;23;20087;-91
2022/03/25 04:50:44;;;;;;;39.92;17.75;;;;;;;;;;6174994;23;20028;-92
2022/03/25 04:53:12;;;;;;;37.70;16.92;;;;;;;;;;6116615;23;20025;-91
2022/03/25 04:55:40;;;;;;;39.05;17.10;;;;;;;;;;6116497;23;20005;-91
2022/03/25 04:58:09;;;;;;;44.13;17.40;;;;;;;;;;6138656;23;20036;-91
2022/03/25 05:00:41;;;;;;;41.25;16.98;;;;;;;;;;6160236;23;20105;-90
2022/03/25 05:03:08;;;;;;;37.67;17.35;;;;;;;;;;6166853;23;20089;-91
2022/03/25 05:05:37;;;;;;;44.53;18.13;;;;;;;;;;6084475;23;20033;-91
2022/03/25 05:08:04;;;;;;;38.40;16.60;;;;;;;;;;6132241;23;20358;-90
2022/03/25 05:10:33;;;;;;;36.90;17.02;;;;;;;;;;6083810;23;20025;-91
2022/03/25 05:13:20;;;;;;;37.85;16.23;;;;;;;;;;6165558;23;20294;-92
2022/03/25 05:15:52;;;;;;;40.85;16.67;;;;;;;;;;6131159;23;20021;-91
2022/03/25 05:18:20;;;;;;;38.55;16.52;;;;;;;;;;6130694;23;20087;-91
2022/03/25 05:20:48;;;;;;;37.95;17.33;;;;;;;;;;6155417;23;20369;-91
2022/03/25 05:23:16;;;;;;;38.88;16.88;;;;;;;;;;6107284;23;20080;-92
2022/03/25 05:26:30;;;;;;;38.53;15.77;;;;;;;;;;6141485;23;20021;-92
2022/03/25 05:28:59;;;;;;;44.63;17.70;;;;;;;;;;6052207;23;20028;-92
2022/03/25 05:31:27;;;;;;;36.47;16.25;;;;;;;;;;6052800;23;20037;-92
2022/03/25 05:33:59;;;;;;;36.15;15.35;;;;;;;;;;6111553;23;20018;-92
2022/03/25 05:36:26;;;;;;;36.50;15.25;;;;;;;;;;6103000;23;20052;-91
2022/03/25 05:38:55;;;;;;;44.85;17.55;;;;;;;;;;6115157;23;20030;-92
2022/03/25 05:41:23;;;;;;;38.08;15.80;;;;;;;;;;6113080;23;20030;-92
2022/03/25 05:43:52;;;;;;;38.42;16.40;;;;;;;;;;6078478;23;20073;-92
2022/03/25 05:46:21;;;;;;;36.28;15.50;;;;;;;;;;6054920;23;20030;-93
2022/03/25 05:48:49;;;;;;;40.15;16.92;;;;;;;;;;6052776;23;20014;-92
2022/03/25 05:51:18;;;;;;;37.85;15.70;;;;;;;;;;6088946;23;20033;-93
2022/03/25 05:53:46;;;;;;;39.10;16.70;;;;;;;;;;6054397;23;20026;-92
2022/03/25 05:56:14;;;;;;;38.88;16.98;;;;;;;;;;6104056;23;20038;-91
2022/03/25 05:58:42;;;;;;;39.22;16.27;;;;;;;;;;6113633;23;20025;-92
2022/03/25 06:01:13;;;;;;;40.70;16.02;;;;;;;;;;6116303;23;20104;-90
2022/03/25 06:03:42;;;;;;;43.88;17.05;;;;;;;;;;6079393;23;20026;-91
2022/03/25 06:06:10;;;;;;;35.17;16.20;;;;;;;;;;6140988;23;20026;-91
2022/03/25 06:08:39;;;;;;;39.75;16.20;;;;;;;;;;6155935;23;20080;-92
2022/03/25 06:11:06;;;;;;;36.97;17.23;;;;;;;;;;6132854;23;20561;-92
2022/03/25 06:13:34;;;;;;;38.47;17.05;;;;;;;;;;6133646;23;20432;-93
2022/03/25 06:16:02;;;;;;;38.13;16.90;;;;;;;;;;6144008;23;20025;-93
2022/03/25 06:18:31;;;;;;;39.90;16.90;;;;;;;;;;6143324;23;20433;-93
2022/03/25 06:21:04;;;;;;;41.83;16.88;;;;;;;;;;6112283;23;20045;-93
2022/03/25 06:23:32;;;;;;;40.22;17.05;;;;;;;;;;6114243;23;20022;-93
2022/03/25 06:26:05;;;;;;;46.10;18.02;;;;;;;;;;6111880;23;20055;-93
2022/03/25 06:28:36;;;;;;;40.38;17.63;;;;;;;;;;6135010;23;20013;-93
2022/03/25 06:31:04;;;;;;;42.28;17.83;;;;;;;;;;6109951;23;20338;-92
2022/03/25 06:33:33;;;;;;;42.67;17.48;;;;;;;;;;6112919;23;20017;-90
2022/03/25 06:36:04;;;;;;;41.50;17.88;;;;;;;;;;6113019;23;20032;-91
2022/03/25 06:38:33;;;;;;;42.28;17.48;;;;;;;;;;6176200;23;20013;-91
2022/03/25 06:41:01;;;;;;;43.15;17.67;;;;;;;;;;6150848;23;20025;-93
2022/03/25 06:43:29;;;;;;;40.65;18.95;;;;;;;;;;6120306;23;20093;-93
2022/03/25 06:46:03;;;;;;;46.75;18.13;;;;;;;;;;6163647;23;20021;-92
2022/03/25 06:48:34;;;;;;;45.78;19.23;;;;;;;;;;6163059;23;20006;-94
2022/03/25 06:51:05;;;;;;;47.05;19.23;;;;;;;;;;6138575;23;20017;-94
2022/03/25 06:53:33;;;;;;;49.95;20.10;;;;;;;;;;6126042;23;20029;-93
2022/03/25 06:56:04;;;;;;;49.92;21.05;;;;;;;;;;6124524;23;20073;-93
2022/03/25 06:58:34;;;;;;;54.95;22.92;;;;;;;;;;6118669;23;20034;-92
2022/03/25 07:01:03;;;;;;;57.92;23.92;;;;;;;;;;6148148;23;20160;-92
2022/03/25 07:03:32;;;;;;;59.90;25.90;;;;;;;;;;6144699;23;20013;-92
2022/03/25 07:06:02;;;;;;;69.65;26.02;;;;;;;;;;6147473;23;20287;-92
2022/03/25 07:08:32;;;;;;;70.50;26.42;;;;;;;;;;6085372;23;20029;-91
2022/03/25 07:11:01;;;;;;;68.97;26.98;;;;;;;;;;6117306;23;20017;-91
2022/03/25 07:13:29;;;;;;;71.40;27.90;;;;;;;;;;6109234;23;20024;-92
2022/03/25 07:15:57;;;;;;;68.47;26.83;;;;;;;;;;6140240;23;20025;-92
2022/03/25 07:18:25;;;;;;;68.15;27.88;;;;;;;;;;6106371;23;20026;-92
2022/03/25 07:20:54;;;;;;;72.75;27.20;;;;;;;;;;6108099;23;20136;-93
2022/03/25 07:23:23;;;;;;;62.85;26.50;;;;;;;;;;6105085;23;20037;-92
2022/03/25 07:25:51;;;;;;;64.40;27.17;;;;;;;;;;6163878;23;20116;-93
2022/03/25 07:28:19;;;;;;;65.90;27.85;;;;;;;;;;6138466;23;20076;-93
2022/03/25 07:30:47;;;;;;;70.75;28.17;;;;;;;;;;6139866;23;20056;-92
2022/03/25 07:33:15;;;;;;;74.95;27.83;;;;;;;;;;6137378;23;20021;-92
2022/03/25 07:35:43;;;;;;;72.75;30.13;;;;;;;;;;6128721;23;20022;-92
2022/03/25 07:38:11;;;;;;;65.57;27.35;;;;;;;;;;6103454;23;20029;-92
2022/03/25 07:40:39;;;;;;;71.65;28.13;;;;;;;;;;6167931;23;20089;-92
2022/03/25 07:43:07;;;;;;;70.15;30.05;;;;;;;;;;6138256;23;20049;-91
2022/03/25 07:45:35;;;;;;;70.20;29.83;;;;;;;;;;6127665;23;20028;-92
2022/03/25 07:48:03;;;;;;;83.60;30.15;;;;;;;;;;6140799;23;20021;-92
2022/03/25 07:50:31;;;;;;;81.45;31.95;;;;;;;;;;6137294;23;20045;-92
2022/03/25 07:52:59;;;;;;;75.93;29.23;;;;;;;;;;6151714;23;20022;-92
2022/03/25 07:55:27;;;;;;;69.57;29.73;;;;;;;;;;6137633;23;20183;-92
2022/03/25 07:57:56;;;;;;;74.25;30.02;;;;;;;;;;6138601;23;20021;-92
2022/03/25 08:00:25;;;;;;;73.90;31.15;;;;;;;;;;6141031;23;20026;-92
2022/03/25 08:02:53;;;;;;;70.30;30.48;;;;;;;;;;6143019;23;20028;-93
2022/03/25 08:05:23;;;;;;;80.10;30.38;;;;;;;;;;6104733;23;20136;-92
2022/03/25 08:07:54;;;;;;;75.80;29.85;;;;;;;;;;6164302;23;20021;-91
2022/03/25 08:10:28;;;;;;;70.80;30.38;;;;;;;;;;6138615;23;20441;-91
2022/03/25 08:12:56;;;;;;;70.38;28.92;;;;;;;;;;6132294;23;20137;-92
2022/03/25 08:15:24;;;;;;;69.07;28.88;;;;;;;;;;6155945;23;20021;-91
2022/03/25 08:18:07;;;;;;;66.05;27.83;;;;;;;;;;6139677;23;20022;-92
2022/03/25 08:20:42;;;;;;;70.13;30.65;;;;;;;;;;6116111;23;20032;-91
2022/03/25 08:27:48;;;;;;;70.20;27.67;;;;;;;;;;6086424;23;20520;-93
2022/03/25 08:28:57;;;;;;;64.70;26.70;;;;;;;;;;6175107;23;20041;-91
2022/03/25 08:31:43;;;;;;;66.57;26.92;;;;;;;;;;6128350;23;20017;-91
2022/03/25 08:34:14;;;;;;;63.22;25.65;;;;;;;;;;6135602;23;20014;-93
2022/03/25 08:36:44;;;;;;;62.25;26.77;;;;;;;;;;6185276;23;20017;-92
2022/03/25 08:39:13;;;;;;;61.38;27.75;;;;;;;;;;6122555;23;20057;-92
2022/03/25 08:41:41;;;;;;;64.10;26.20;;;;;;;;;;6138309;23;20045;-92
2022/03/25 08:44:09;;;;;;;65.10;25.65;;;;;;;;;;6135438;23;20464;-92
2022/03/25 08:46:37;;;;;;;60.15;26.75;;;;;;;;;;6118182;23;20031;-92
2022/03/25 08:49:12;;;;;;;60.83;26.05;;;;;;;;;;6130109;23;20025;-92
2022/03/25 08:51:39;;;;;;;62.20;26.30;;;;;;;;;;6105160;23;20029;-92
2022/03/25 08:54:08;;;;;;;63.20;24.27;;;;;;;;;;6127806;23;20076;-93
2022/03/25 08:56:38;;;;;;;55.33;24.52;;;;;;;;;;6127866;23;20029;-93
2022/03/25 08:59:05;;;;;;;53.55;24.30;;;;;;;;;;6136732;23;20014;-92
2022/03/25 09:01:33;;;;;;;55.63;24.83;;;;;;;;;;6165151;23;20421;-91
2022/03/25 09:04:01;;;;;;;53.97;24.95;;;;;;;;;;6139987;23;20048;-92
2022/03/25 09:06:29;;;;;;;62.75;24.90;;;;;;;;;;6127011;23;20026;-92
2022/03/25 09:08:57;;;;;;;54.95;24.08;;;;;;;;;;6126402;23;20029;-92
2022/03/25 09:11:25;;;;;;;56.15;24.95;;;;;;;;;;6138199;23;20021;-92
2022/03/25 09:13:54;;;;;;;54.53;24.05;;;;;;;;;;6137312;23;20022;-92
2022/03/25 09:16:21;;;;;;;55.05;25.05;;;;;;;;;;6163177;23;20842;-92
2022/03/25 09:18:49;;;;;;;54.40;24.02;;;;;;;;;;6130581;23;20041;-91
2022/03/25 09:21:17;;;;;;;56.88;25.38;;;;;;;;;;6101254;23;20088;-92
2022/03/25 09:23:45;;;;;;;57.78;24.58;;;;;;;;;;6132923;23;20029;-94
2022/03/25 09:26:16;;;;;;;59.83;23.60;;;;;;;;;;6145786;23;20076;-94
2022/03/25 09:28:47;;;;;;;49.75;24.00;;;;;;;;;;6134345;23;20829;-95
2022/03/25 09:31:15;;;;;;;55.85;24.60;;;;;;;;;;6111459;23;20085;-94
2022/03/25 09:36:49;;;;;;;54.30;22.65;;;;;;;;;;6135669;23;20440;-94
2022/03/25 09:39:17;;;;;;;53.58;24.30;;;;;;;;;;6112774;23;20017;-94
2022/03/25 09:41:46;;;;;;;45.50;22.55;;;;;;;;;;6129845;23;20029;-94
2022/03/25 09:44:15;;;;;;;57.35;23.50;;;;;;;;;;6141349;23;20440;-94
2022/03/25 09:46:43;;;;;;;50.05;22.67;;;;;;;;;;6131492;23;20033;-91
2022/03/25 09:49:12;;;;;;;54.28;23.23;;;;;;;;;;6103705;23;20030;-94
2022/03/25 09:51:41;;;;;;;52.30;23.98;;;;;;;;;;6107291;23;20057;-93
2022/03/25 09:54:12;;;;;;;50.28;23.15;;;;;;;;;;6103047;23;20021;-94
2022/03/25 09:56:41;;;;;;;54.67;23.83;;;;;;;;;;6140384;23;20022;-93
2022/03/25 09:59:15;;;;;;;46.13;22.50;;;;;;;;;;6128090;23;20021;-94
2022/03/25 10:01:43;;;;;;;45.58;20.85;;;;;;;;;;6085169;23;20036;-93
2022/03/25 10:04:40;;;;;;;46.72;20.45;;;;;;;;;;6141297;23;20060;-91
2022/03/25 10:07:21;;;;;;;45.55;20.65;;;;;;;;;;6160601;23;20433;-91
2022/03/25 10:10:14;;;;;;;43.30;20.13;;;;;;;;;;6136120;23;20018;-91
2022/03/25 10:12:45;;;;;;;41.50;19.23;;;;;;;;;;6128544;23;20325;-92
2022/03/25 10:15:21;;;;;;;46.70;18.88;;;;;;;;;;6128177;23;20021;-91
2022/03/25 10:18:03;;;;;;;40.58;18.90;;;;;;;;;;6166742;23;20024;-91
2022/03/25 10:20:34;;;;;;;41.67;19.08;;;;;;;;;;6140668;23;20088;-91
2022/03/25 10:23:11;;;;;;;39.40;18.33;;;;;;;;;;6106951;23;20034;-91
2022/03/25 10:25:55;;;;;;;42.65;18.65;;;;;;;;;;6166185;23;20009;-91
2022/03/25 10:28:41;;;;;;;43.22;18.33;;;;;;;;;;6132888;23;20029;-92
2022/03/25 10:31:17;;;;;;;40.47;18.55;;;;;;;;;;6143847;23;20028;-91
2022/03/25 10:33:52;;;;;;;40.00;18.35;;;;;;;;;;6145559;23;20022;-92
2022/03/25 10:36:25;;;;;;;38.45;19.63;;;;;;;;;;6108757;23;20051;-91
2022/03/25 10:39:00;;;;;;;36.28;18.27;;;;;;;;;;6153404;23;20092;-90
2022/03/25 10:41:37;;;;;;;37.58;17.35;;;;;;;;;;6141174;23;20040;-90
2022/03/25 10:44:06;;;;;;;36.92;15.88;;;;;;;;;;6107105;23;20035;-92
2022/03/25 10:46:45;;;;;;;32.28;15.98;;;;;;;;;;6127396;23;20072;-91
2022/03/25 10:49:16;;;;;;;32.58;15.15;;;;;;;;;;6116565;23;20386;-89
2022/03/25 10:52:00;;;;;;;34.08;14.15;;;;;;;;;;6165258;23;20018;-91
2022/03/25 10:54:28;;;;;;;36.30;15.32;;;;;;;;;;6168605;23;20105;-88
2022/03/25 10:56:59;;;;;;;32.35;15.25;;;;;;;;;;6164480;23;20097;-88
2022/03/25 10:59:28;;;;;;;39.70;16.60;;;;;;;;;;6164979;23;20025;-89
2022/03/25 11:02:02;;;;;;;38.60;17.35;;;;;;;;;;6105119;23;20132;-89
2022/03/25 11:04:34;;;;;;;36.90;15.52;;;;;;;;;;6142150;23;20629;-88
2022/03/25 11:07:03;;;;;;;36.22;15.18;;;;;;;;;;6110661;23;20108;-88
2022/03/25 11:09:31;;;;;;;31.15;14.85;;;;;;;;;;6141658;23;20339;-88
2022/03/25 11:11:59;;;;;;;34.08;15.90;;;;;;;;;;6167330;23;20076;-90
2022/03/25 11:14:27;;;;;;;40.38;16.95;;;;;;;;;;6128354;23;20025;-90
2022/03/25 11:17:00;;;;;;;35.67;16.38;;;;;;;;;;6167953;23;20430;-90
2022/03/25 11:19:27;;;;;;;34.20;15.45;;;;;;;;;;6165469;23;20028;-89
2022/03/25 11:21:59;;;;;;;40.05;16.02;;;;;;;;;;6141239;23;20373;-90
2022/03/25 11:24:35;;;;;;;36.08;17.30;;;;;;;;;;6138385;23;20438;-89
2022/03/25 11:27:08;;;;;;;31.15;15.73;;;;;;;;;;6168010;23;20018;-90
2022/03/25 11:29:43;;;;;;;41.35;16.75;;;;;;;;;;6167589;23;20021;-91
2022/03/25 11:32:14;;;;;;;36.80;16.67;;;;;;;;;;6140300;23;20117;-89
2022/03/25 11:34:42;;;;;;;35.45;16.02;;;;;;;;;;6102996;23;20318;-88
2022/03/25 11:37:31;;;;;;;30.77;14.85;;;;;;;;;;6163670;23;20033;-92
2022/03/25 11:40:14;;;;;;;34.85;14.20;;;;;;;;;;6154244;23;20048;-91
2022/03/25 11:42:49;;;;;;;30.45;14.73;;;;;;;;;;6163126;23;20513;-92
2022/03/25 11:45:20;;;;;;;31.05;13.70;;;;;;;;;;6117390;23;20013;-90
2022/03/25 11:47:59;;;;;;;29.50;14.57;;;;;;;;;;6103716;23;20057;-92
2022/03/25 11:50:30;;;;;;;32.45;13.40;;;;;;;;;;6102296;23;20029;-92
2022/03/25 11:52:58;;;;;;;33.78;15.70;;;;;;;;;;6164966;23;20414;-92
2022/03/25 11:55:52;;;;;;;33.42;14.15;;;;;;;;;;6116112;23;20056;-90
2022/03/25 11:58:21;;;;;;;28.05;12.60;;;;;;;;;;6115896;23;20043;-92
2022/03/25 12:01:09;;;;;;;28.40;13.85;;;;;;;;;;6109372;23;20021;-92
2022/03/25 12:03:52;;;;;;;30.30;12.70;;;;;;;;;;6103120;23;20329;-90
2022/03/25 12:06:23;;;;;;;22.90;11.60;;;;;;;;;;6164257;23;20110;-90
2022/03/25 12:09:15;;;;;;;32.63;12.18;;;;;;;;;;6129068;23;20789;-91
2022/03/25 12:11:53;;;;;;;29.50;13.00;;;;;;;;;;6136996;23;20355;-90
2022/03/25 12:14:31;;;;;;;29.00;12.75;;;;;;;;;;6166370;23;20090;-89
2022/03/25 12:17:00;;;;;;;29.58;12.65;;;;;;;;;;6102431;23;20541;-89
2022/03/25 12:19:29;;;;;;;26.63;11.90;;;;;;;;;;6148927;23;20545;-88
2022/03/25 12:21:58;;;;;;;28.02;12.10;;;;;;;;;;6163365;23;20172;-87
2022/03/25 12:24:29;;;;;;;25.95;11.98;;;;;;;;;;6136192;23;20383;-87
2022/03/25 12:27:05;;;;;;;26.77;10.68;;;;;;;;;;6139771;23;20020;-88
2022/03/25 12:29:35;;;;;;;27.63;10.60;;;;;;;;;;6136615;23;20021;-89
2022/03/25 12:32:13;;;;;;;29.60;12.10;;;;;;;;;;6162347;23;20153;-88
2022/03/25 12:34:41;;;;;;;27.10;12.13;;;;;;;;;;6126236;23;20365;-88
2022/03/25 12:37:13;;;;;;;25.00;10.50;;;;;;;;;;6160106;23;20021;-88
2022/03/25 12:39:42;;;;;;;30.92;11.40;;;;;;;;;;6160459;23;20049;-89
2022/03/25 12:42:12;;;;;;;26.13;11.77;;;;;;;;;;6137834;23;20028;-88
2022/03/25 12:44:39;;;;;;;31.30;11.75;;;;;;;;;;6163727;23;20096;-88
2022/03/25 12:47:07;;;;;;;29.67;12.05;;;;;;;;;;6163348;23;20017;-88
2022/03/25 12:49:35;;;;;;;26.83;11.63;;;;;;;;;;6103147;23;20044;-88
2022/03/25 12:52:05;;;;;;;30.88;11.10;;;;;;;;;;6128056;23;20167;-88
2022/03/25 12:54:35;;;;;;;28.88;12.77;;;;;;;;;;6134375;23;20022;-85
2022/03/25 12:57:04;;;;;;;26.48;11.30;;;;;;;;;;6161828;23;20013;-86
2022/03/25 12:59:55;;;;;;;29.80;11.98;;;;;;;;;;6163936;23;20028;-86
2022/03/25 13:02:34;;;;;;;28.20;12.63;;;;;;;;;;6162450;23;20108;-86
2022/03/25 13:05:17;;;;;;;34.50;12.43;;;;;;;;;;6152068;23;20080;-86
2022/03/25 13:07:52;;;;;;;29.50;12.02;;;;;;;;;;6162188;23;20036;-86
2022/03/25 13:10:20;;;;;;;28.15;12.20;;;;;;;;;;6162209;23;20022;-86
2022/03/25 13:12:51;;;;;;;29.83;11.23;;;;;;;;;;6136134;23;20026;-86
2022/03/25 13:15:28;;;;;;;27.80;12.05;;;;;;;;;;6164116;23;20742;-86
2022/03/25 13:18:01;;;;;;;29.25;11.40;;;;;;;;;;6163975;23;20026;-86
2022/03/25 13:20:44;;;;;;;24.08;11.27;;;;;;;;;;6161598;23;20080;-86
2022/03/25 13:23:18;;;;;;;40.05;13.05;;;;;;;;;;6125846;23;20166;-88
2022/03/25 13:25:51;;;;;;;33.83;12.60;;;;;;;;;;6135585;23;20430;-88
2022/03/25 13:28:21;;;;;;;55.38;11.45;;;;;;;;;;6161615;23;20030;-88
2022/03/25 13:30:58;;;;;;;22.40;9.85;;;;;;;;;;6167594;23;20036;-87
2022/03/25 13:33:30;;;;;;;29.20;11.25;;;;;;;;;;6153707;23;20051;-87
2022/03/25 13:36:00;;;;;;;23.48;11.07;;;;;;;;;;6138718;23;20081;-87
2022/03/25 13:38:48;;;;;;;59.92;11.60;;;;;;;;;;6161199;23;20080;-85
2022/03/25 13:41:21;;;;;;;31.65;10.50;;;;;;;;;;6158227;23;20059;-86
2022/03/25 13:43:53;;;;;;;23.50;10.50;;;;;;;;;;6101747;23;20025;-85
2022/03/25 13:46:26;;;;;;;76.75;12.50;;;;;;;;;;6135522;23;20453;-85
2022/03/25 13:49:08;;;;;;;43.88;10.35;;;;;;;;;;6163763;23;20024;-87
2022/03/25 13:51:36;;;;;;;31.60;10.85;;;;;;;;;;6140128;23;20057;-87
2022/03/25 13:54:16;;;;;;;47.95;10.40;;;;;;;;;;6163695;23;20094;-87
2022/03/25 13:56:49;;;;;;;44.00;10.68;;;;;;;;;;6153688;23;20088;-87
2022/03/25 13:59:36;;;;;;;34.10;10.68;;;;;;;;;;6139843;23;20077;-85
2022/03/25 14:02:04;;;;;;;23.40;9.70;;;;;;;;;;6167763;23;20017;-87
2022/03/25 14:04:32;;;;;;;20.30;9.05;;;;;;;;;;6177398;23;20012;-88
2022/03/25 14:07:01;;;;;;;21.40;8.90;;;;;;;;;;6163536;23;20044;-88
2022/03/25 14:09:39;;;;;;;26.45;9.82;;;;;;;;;;6184417;23;20025;-88
2022/03/25 14:12:14;;;;;;;20.15;9.20;;;;;;;;;;6144181;23;20021;-86
2022/03/25 14:14:54;;;;;;;27.85;10.38;;;;;;;;;;6164030;23;20044;-88
2022/03/25 14:17:28;;;;;;;24.70;8.85;;;;;;;;;;6129931;23;20049;-88
2022/03/25 14:20:04;;;;;;;19.45;8.73;;;;;;;;;;6167711;23;20077;-88
2022/03/25 14:22:31;;;;;;;24.42;9.20;;;;;;;;;;6168467;23;20033;-89
2022/03/25 14:24:59;;;;;;;22.00;8.68;;;;;;;;;;6168741;23;20029;-88
2022/03/25 14:27:28;;;;;;;21.35;8.68;;;;;;;;;;6172713;23;20031;-87
2022/03/25 14:29:57;;;;;;;22.98;9.30;;;;;;;;;;6108248;23;20029;-89
2022/03/25 14:32:27;;;;;;;23.98;10.15;;;;;;;;;;6157078;23;20034;-88
2022/03/25 14:34:59;;;;;;;23.83;10.30;;;;;;;;;;6105687;23;20033;-89
2022/03/25 14:37:27;;;;;;;33.72;12.13;;;;;;;;;;6156474;23;20150;-90
2022/03/25 14:39:55;;;;;;;23.05;9.25;;;;;;;;;;6142708;23;20038;-88
2022/03/25 14:42:23;;;;;;;19.58;8.95;;;;;;;;;;6105783;23;20069;-87
2022/03/25 14:44:51;;;;;;;18.63;8.95;;;;;;;;;;6152464;23;20021;-87
2022/03/25 14:47:19;;;;;;;15.90;8.77;;;;;;;;;;6166154;23;20017;-86
2022/03/25 14:49:47;;;;;;;21.88;9.40;;;;;;;;;;6162954;23;20025;-87
2022/03/25 14:52:21;;;;;;;26.50;9.68;;;;;;;;;;6141749;23;20021;-87
2022/03/25 14:54:49;;;;;;;25.30;10.27;;;;;;;;;;6169077;23;20078;-86